createdAt,value
2022-11-30T08:08:23.909Z,102325.91
2022-11-30T08:12:03.768Z,102335.78
2022-11-30T08:15:19.319Z,102333.75
2022-11-30T08:17:52.153Z,102341.50
2022-11-30T08:20:22.454Z,102332.97
2022-11-30T08:22:56.962Z,102339.56
2022-11-30T08:25:25.773Z,102327.69
2022-11-30T08:28:11.394Z,102307.31
2022-11-30T08:30:41.985Z,102335.88
2022-11-30T08:33:21.440Z,102322.59
2022-11-30T08:35:59.713Z,102346.16
2022-11-30T08:38:35.087Z,102341.72
2022-11-30T08:41:19.565Z,102325.59
2022-11-30T08:43:59.697Z,102354.50
2022-11-30T08:46:55.715Z,102365.56
2022-11-30T08:49:38.824Z,102346.66
2022-11-30T08:52:18.941Z,102356.84
2022-11-30T08:55:07.095Z,102364.38
2022-11-30T08:57:45.756Z,102370.22
2022-11-30T09:00:23.190Z,102373.31
2022-11-30T09:07:05.300Z,102359.75
2022-11-30T09:09:36.977Z,102371.84
2022-11-30T09:12:07.150Z,102377.56
2022-11-30T09:14:37.662Z,102376.22
2022-11-30T09:17:19.537Z,102369.53
2022-11-30T09:19:51.378Z,102372.72
2022-11-30T09:22:23.101Z,102365.19
2022-11-30T09:24:55.767Z,102379.31
2022-11-30T09:27:30.842Z,102388.84
2022-11-30T09:29:59.962Z,102381.88
2022-11-30T09:32:32.382Z,102383.22
2022-11-30T09:35:03.143Z,102383.75
2022-11-30T09:37:50.664Z,102393.63
2022-11-30T09:40:19.669Z,102395.75
2022-11-30T09:43:00.075Z,102406.66
2022-11-30T09:45:43.561Z,102399.56
2022-11-30T09:48:31.125Z,102407.75
2022-11-30T09:51:01.722Z,102408.28
2022-11-30T09:53:41.858Z,102413.38
2022-11-30T09:56:21.497Z,102412.72
2022-11-30T09:58:56.935Z,102413.16
2022-11-30T10:01:41.137Z,102430.28
2022-11-30T10:04:18.879Z,102430.81
2022-11-30T10:06:56.411Z,102440.16
2022-11-30T10:09:34.489Z,102441.03
2022-11-30T10:12:08.028Z,102404.69
2022-11-30T10:15:18.876Z,102433.34
2022-11-30T10:17:54.104Z,102442.28
2022-11-30T10:20:44.027Z,102446.09
2022-11-30T10:23:41.388Z,102465.97
2022-11-30T10:26:23.746Z,102463.63
2022-11-30T10:28:56.031Z,102460.31
2022-11-30T10:31:35.736Z,102455.44
2022-11-30T10:34:15.540Z,102467.94
2022-11-30T10:36:48.180Z,102469.94
2022-11-30T10:39:21.005Z,102477.72
2022-11-30T10:41:54.752Z,102474.63
2022-11-30T10:44:26.155Z,102463.69
2022-11-30T10:46:58.483Z,102481.09
2022-11-30T10:49:30.684Z,102476.53
2022-11-30T10:52:03.798Z,102497.03
2022-11-30T10:59:13.297Z,102473.00
2022-11-30T11:08:19.125Z,102464.72
2022-11-30T11:14:37.926Z,102484.16
2022-11-30T11:17:22.715Z,102468.50
2022-11-30T11:19:51.626Z,102472.41
2022-11-30T11:22:27.026Z,102484.91
2022-11-30T11:24:58.776Z,102464.47
2022-11-30T11:27:30.275Z,102486.06
2022-11-30T11:30:14.595Z,102478.09
2022-11-30T11:33:01.414Z,102488.16
2022-11-30T11:35:40.606Z,102487.22
2022-11-30T11:38:32.284Z,102493.13
2022-11-30T11:41:11.854Z,102493.66
2022-11-30T11:44:01.188Z,102491.72
2022-11-30T11:46:33.638Z,102494.91
2022-11-30T11:49:18.518Z,102491.25
2022-11-30T11:52:12.898Z,102488.38
2022-11-30T11:54:53.069Z,102489.84
2022-11-30T11:57:37.978Z,102492.16
2022-11-30T12:00:25.439Z,102494.59
2022-11-30T12:03:12.254Z,102485.88
2022-11-30T12:05:50.367Z,102490.97
2022-11-30T12:08:30.213Z,102491.81
2022-11-30T12:11:05.900Z,102500.75
2022-11-30T12:13:43.159Z,102495.44
2022-11-30T12:16:37.527Z,102505.88
2022-11-30T12:22:35.836Z,102498.91
2022-11-30T12:25:25.168Z,102499.41
2022-11-30T12:28:08.852Z,102497.50
2022-11-30T12:30:57.303Z,102493.88
2022-11-30T12:33:38.918Z,102489.13
2022-11-30T12:36:12.750Z,102509.84
2022-11-30T12:38:47.512Z,102505.63
2022-11-30T12:49:16.155Z,102496.84
2022-11-30T12:51:46.179Z,102492.38
2022-11-30T12:54:18.081Z,102501.47
2022-11-30T12:56:47.593Z,102498.91
2022-11-30T12:59:20.010Z,102504.47
2022-11-30T13:01:53.697Z,102484.38
2022-11-30T13:04:25.565Z,102487.50
2022-11-30T13:06:54.902Z,102499.59
2022-11-30T13:09:26.535Z,102500.66
2022-11-30T13:11:58.029Z,102502.72
2022-11-30T13:14:26.981Z,102501.00
2022-11-30T13:17:02.916Z,102491.44
2022-11-30T13:19:41.128Z,102490.81
2022-11-30T13:22:11.309Z,102492.97
2022-11-30T13:24:44.511Z,102489.81
2022-11-30T13:27:18.944Z,102481.06
2022-11-30T13:30:03.068Z,102485.94
2022-11-30T13:32:57.305Z,102477.25
2022-11-30T13:35:59.086Z,102481.94
2022-11-30T13:38:38.110Z,102477.69
2022-11-30T13:41:13.352Z,102478.13
2022-11-30T13:43:45.194Z,102467.28
2022-11-30T13:46:16.547Z,102476.72
2022-11-30T13:48:47.631Z,102479.16
2022-11-30T13:51:31.284Z,102468.31
2022-11-30T13:54:28.131Z,102481.34
2022-11-30T13:56:57.952Z,102480.41
2022-11-30T13:59:40.926Z,102473.88
2022-11-30T14:05:46.686Z,102481.84
2022-11-30T14:08:38.990Z,102478.22
2022-11-30T14:11:41.786Z,102469.06
2022-11-30T14:14:45.796Z,102466.72
2022-11-30T14:17:22.196Z,102467.59
2022-11-30T14:19:52.091Z,102469.28
2022-11-30T14:22:20.785Z,102467.97
2022-11-30T14:24:49.306Z,102478.50
2022-11-30T14:27:19.695Z,102474.16
2022-11-30T14:29:53.387Z,102482.88
2022-11-30T14:32:29.229Z,102481.91
2022-11-30T14:35:03.389Z,102490.75
2022-11-30T14:37:33.844Z,102479.84
2022-11-30T14:40:03.534Z,102477.53
2022-11-30T14:42:32.512Z,102474.78
2022-11-30T14:45:03.103Z,102480.00
2022-11-30T14:47:33.870Z,102473.94
2022-11-30T14:50:06.903Z,102466.31
2022-11-30T14:52:46.337Z,102484.56
2022-11-30T14:55:19.126Z,102493.72
2022-11-30T14:57:53.120Z,102487.06
2022-11-30T15:00:41.386Z,102487.69
2022-11-30T15:03:20.128Z,102494.19
2022-11-30T15:05:51.370Z,102492.38
2022-11-30T15:08:19.798Z,102460.75
2022-11-30T15:10:47.930Z,102488.88
2022-11-30T15:13:18.700Z,102482.84
2022-11-30T15:15:57.326Z,102488.03
2022-11-30T15:18:25.961Z,102479.53
2022-11-30T15:20:58.120Z,102484.00
2022-11-30T15:33:12.576Z,102487.28
2022-11-30T15:36:13.626Z,102498.72
2022-11-30T15:38:34.500Z,102497.59
2022-11-30T15:41:05.456Z,102513.13
2022-11-30T15:43:38.056Z,102508.69
2022-11-30T15:46:07.810Z,102524.97
2022-11-30T15:48:39.576Z,102520.31
2022-11-30T15:51:10.127Z,102521.59
2022-11-30T15:53:50.241Z,102522.88
2022-11-30T15:59:47.755Z,102522.88
2022-11-30T16:02:29.810Z,102539.78
2022-11-30T16:05:27.784Z,102535.13
2022-11-30T16:07:57.428Z,102541.81
2022-11-30T16:10:26.832Z,102541.25
2022-11-30T16:12:55.318Z,102537.03
2022-11-30T16:15:25.504Z,102530.88
2022-11-30T16:17:54.269Z,102531.06
2022-11-30T16:20:22.657Z,102526.69
2022-11-30T16:22:52.911Z,102523.31
2022-11-30T16:26:43.171Z,102524.69
2022-11-30T16:32:49.584Z,102539.97
2022-11-30T16:36:12.078Z,102545.94
2022-11-30T16:39:40.300Z,102555.72
2022-11-30T16:42:16.341Z,102566.97
2022-11-30T16:44:51.876Z,102572.41
2022-11-30T16:47:21.805Z,102576.63
2022-11-30T16:49:51.837Z,102570.38
2022-11-30T16:52:22.960Z,102565.50
2022-11-30T16:54:56.066Z,102568.16
2022-11-30T16:57:30.829Z,102584.84
2022-11-30T16:59:59.716Z,102583.03
2022-11-30T17:02:29.053Z,102590.16
2022-11-30T17:05:00.792Z,102595.25
2022-11-30T17:07:33.057Z,102596.13
2022-11-30T17:10:04.437Z,102600.69
2022-11-30T17:12:38.756Z,102600.56
2022-11-30T17:18:02.823Z,102590.78
2022-11-30T17:23:41.119Z,102612.88
2022-11-30T17:26:12.479Z,102610.63
2022-11-30T17:28:42.871Z,102611.59
2022-11-30T17:31:12.868Z,102617.13
2022-11-30T17:34:04.271Z,102593.81
2022-11-30T17:36:48.396Z,102619.22
2022-11-30T17:39:18.393Z,102624.53
2022-11-30T17:41:56.031Z,102637.94
2022-11-30T17:44:29.058Z,102629.63
2022-11-30T17:47:05.139Z,102632.03
2022-11-30T17:52:46.911Z,102630.13
2022-11-30T17:55:33.899Z,102648.47
2022-11-30T17:58:04.803Z,102639.13
2022-11-30T18:00:44.552Z,102648.88
2022-11-30T18:03:15.521Z,102642.94
2022-11-30T18:05:49.056Z,102650.81
2022-11-30T18:08:26.743Z,102652.91
2022-11-30T18:10:58.121Z,102656.47
2022-11-30T18:13:35.290Z,102662.00
2022-11-30T18:16:16.297Z,102672.63
2022-11-30T18:18:48.533Z,102676.41
2022-11-30T18:21:18.881Z,102674.72
2022-11-30T18:23:49.059Z,102693.19
2022-11-30T18:26:25.865Z,102698.78
2022-11-30T18:29:03.088Z,102696.91
2022-11-30T18:31:37.556Z,102697.00
2022-11-30T18:34:09.309Z,102701.44
2022-11-30T18:36:43.884Z,102704.41
2022-11-30T18:39:13.887Z,102707.31
2022-11-30T18:41:43.550Z,102715.50
2022-11-30T18:44:30.495Z,102717.09
2022-11-30T18:47:01.458Z,102729.50
2022-11-30T18:49:29.872Z,102733.72
2022-11-30T18:52:11.742Z,102725.53
2022-11-30T18:54:47.933Z,102739.75
2022-11-30T18:57:33.922Z,102741.84
2022-11-30T19:00:15.584Z,102749.50
2022-11-30T19:03:05.805Z,102752.28
2022-11-30T19:05:36.378Z,102751.69
2022-11-30T19:08:15.059Z,102755.09
2022-11-30T19:10:51.663Z,102756.13
2022-11-30T19:13:34.117Z,102768.72
2022-11-30T19:19:19.981Z,102760.19
2022-11-30T19:22:06.952Z,102766.22
2022-11-30T19:24:44.577Z,102775.97
2022-11-30T19:27:43.435Z,102772.09
2022-11-30T19:37:47.659Z,102773.75
2022-11-30T19:41:11.928Z,102790.59
2022-11-30T19:44:22.873Z,102802.88
2022-11-30T19:47:18.625Z,102799.41
2022-11-30T19:50:12.021Z,102793.16
2022-11-30T19:53:06.929Z,102808.78
2022-11-30T19:56:05.221Z,102802.56
2022-11-30T20:05:03.672Z,102811.75
2022-11-30T20:14:05.270Z,102814.13
2022-11-30T20:16:51.596Z,102818.50
2022-11-30T20:19:32.344Z,102823.03
2022-11-30T20:22:41.990Z,102815.06
2022-11-30T20:25:32.225Z,102819.25
2022-11-30T20:28:09.681Z,102815.00
2022-11-30T20:31:15.416Z,102807.91
2022-11-30T20:33:49.187Z,102799.09
2022-11-30T20:36:35.353Z,102807.91
2022-11-30T20:39:08.336Z,102813.00
2022-11-30T20:41:54.340Z,102805.06
2022-11-30T20:44:37.039Z,102820.59
2022-11-30T20:47:13.697Z,102823.06
2022-11-30T20:49:47.871Z,102830.09
2022-11-30T20:52:32.244Z,102830.84
2022-11-30T20:55:01.986Z,102823.63
2022-11-30T20:57:32.191Z,102825.25
2022-11-30T21:00:11.655Z,102841.09
2022-11-30T21:05:40.950Z,102823.63
2022-11-30T21:08:12.825Z,102819.41
2022-11-30T21:10:44.262Z,102819.28
2022-11-30T21:13:13.503Z,102811.53
2022-11-30T21:16:05.725Z,102815.78
2022-11-30T21:18:39.126Z,102818.63
2022-11-30T21:28:55.744Z,102819.47
2022-11-30T22:17:21.538Z,102836.16
2022-11-30T22:20:09.415Z,102848.63
2022-11-30T22:22:41.259Z,102855.97
2022-11-30T22:25:50.316Z,102846.50
2022-11-30T22:28:31.723Z,102846.31
2022-11-30T22:31:08.097Z,102838.56
2022-11-30T22:33:43.822Z,102840.28
2022-11-30T22:36:18.778Z,102844.72
2022-11-30T22:39:01.335Z,102858.97
2022-11-30T22:41:32.848Z,102862.75
2022-11-30T22:44:17.477Z,102859.47
2022-11-30T22:46:51.765Z,102867.31
2022-11-30T22:49:30.166Z,102868.34
2022-11-30T22:52:02.334Z,102868.53
2022-11-30T22:54:31.659Z,102849.41
2022-11-30T22:57:01.673Z,102850.41
2022-11-30T22:59:30.672Z,102851.41
2022-11-30T23:02:18.305Z,102832.31
2022-11-30T23:30:01.088Z,102870.94
2022-11-30T23:46:18.463Z,102873.25
